sensor_id;sensor_type;location;lat;lon;timestamp;P1;durP1;ratioP1;P2;durP2;ratioP2
59659;SDS011;45534;52.690;6.268;2023-04-24T00:00:55;1.67;;;1.58;;
59659;SDS011;45534;52.690;6.268;2023-04-24T00:03:22;1.33;;;1.33;;
59659;SDS011;45534;52.690;6.268;2023-04-24T00:05:48;2.17;;;1.88;;
59659;SDS011;45534;52.690;6.268;2023-04-24T00:08:15;3.78;;;2.03;;
59659;SDS011;45534;52.690;6.268;2023-04-24T00:10:40;1.65;;;1.60;;
59659;SDS011;45534;52.690;6.268;2023-04-24T00:13:06;1.67;;;1.58;;
59659;SDS011;45534;52.690;6.268;2023-04-24T00:15:32;1.55;;;1.48;;
59659;SDS011;45534;52.690;6.268;2023-04-24T00:17:58;1.92;;;1.83;;
59659;SDS011;45534;52.690;6.268;2023-04-24T00:20:23;1.83;;;1.73;;
59659;SDS011;45534;52.690;6.268;2023-04-24T00:22:49;2.88;;;2.63;;
59659;SDS011;45534;52.690;6.268;2023-04-24T00:25:15;1.45;;;1.35;;
59659;SDS011;45534;52.690;6.268;2023-04-24T00:27:40;2.15;;;2.05;;
59659;SDS011;45534;52.690;6.268;2023-04-24T00:30:06;2.60;;;2.40;;
59659;SDS011;45534;52.690;6.268;2023-04-24T00:32:32;1.98;;;1.88;;
59659;SDS011;45534;52.690;6.268;2023-04-24T00:34:58;4.07;;;2.70;;
59659;SDS011;45534;52.690;6.268;2023-04-24T00:37:24;2.17;;;1.95;;
59659;SDS011;45534;52.690;6.268;2023-04-24T00:39:50;2.67;;;2.10;;
59659;SDS011;45534;52.690;6.268;2023-04-24T00:42:15;2.22;;;2.10;;
59659;SDS011;45534;52.690;6.268;2023-04-24T00:44:41;2.72;;;2.53;;
59659;SDS011;45534;52.690;6.268;2023-04-24T00:47:07;5.25;;;2.58;;
59659;SDS011;45534;52.690;6.268;2023-04-24T00:49:33;2.35;;;2.00;;
59659;SDS011;45534;52.690;6.268;2023-04-24T00:51:58;1.90;;;1.80;;
59659;SDS011;45534;52.690;6.268;2023-04-24T00:54:24;4.00;;;3.30;;
59659;SDS011;45534;52.690;6.268;2023-04-24T00:56:50;2.95;;;2.75;;
59659;SDS011;45534;52.690;6.268;2023-04-24T00:59:16;6.85;;;4.65;;
59659;SDS011;45534;52.690;6.268;2023-04-24T01:01:43;3.83;;;2.97;;
59659;SDS011;45534;52.690;6.268;2023-04-24T01:04:09;2.67;;;2.53;;
59659;SDS011;45534;52.690;6.268;2023-04-24T01:06:40;4.28;;;3.05;;
59659;SDS011;45534;52.690;6.268;2023-04-24T01:09:09;3.75;;;3.22;;
59659;SDS011;45534;52.690;6.268;2023-04-24T01:11:37;5.93;;;3.40;;
59659;SDS011;45534;52.690;6.268;2023-04-24T01:14:03;3.60;;;2.83;;
59659;SDS011;45534;52.690;6.268;2023-04-24T01:16:29;3.20;;;2.22;;
59659;SDS011;45534;52.690;6.268;2023-04-24T01:18:54;3.03;;;2.70;;
59659;SDS011;45534;52.690;6.268;2023-04-24T01:21:20;2.42;;;2.20;;
59659;SDS011;45534;52.690;6.268;2023-04-24T01:23:48;3.53;;;3.22;;
59659;SDS011;45534;52.690;6.268;2023-04-24T01:26:15;2.55;;;2.35;;
59659;SDS011;45534;52.690;6.268;2023-04-24T01:28:41;4.15;;;3.78;;
59659;SDS011;45534;52.690;6.268;2023-04-24T01:31:08;2.95;;;2.75;;
59659;SDS011;45534;52.690;6.268;2023-04-24T01:33:34;3.33;;;3.03;;
59659;SDS011;45534;52.690;6.268;2023-04-24T01:35:59;3.13;;;2.92;;
59659;SDS011;45534;52.690;6.268;2023-04-24T01:38:25;2.83;;;2.63;;
59659;SDS011;45534;52.690;6.268;2023-04-24T01:40:51;3.95;;;3.65;;
59659;SDS011;45534;52.690;6.268;2023-04-24T01:43:18;2.90;;;2.70;;
59659;SDS011;45534;52.690;6.268;2023-04-24T01:45:44;3.72;;;3.28;;
59659;SDS011;45534;52.690;6.268;2023-04-24T01:48:11;2.90;;;2.70;;
59659;SDS011;45534;52.690;6.268;2023-04-24T01:50:37;2.33;;;2.22;;
59659;SDS011;45534;52.690;6.268;2023-04-24T01:53:03;2.40;;;2.30;;
59659;SDS011;45534;52.690;6.268;2023-04-24T01:55:29;2.85;;;2.63;;
59659;SDS011;45534;52.690;6.268;2023-04-24T01:57:55;2.90;;;2.70;;
59659;SDS011;45534;52.690;6.268;2023-04-24T02:00:21;1.90;;;1.80;;
59659;SDS011;45534;52.690;6.268;2023-04-24T02:02:47;2.78;;;2.58;;
59659;SDS011;45534;52.690;6.268;2023-04-24T02:05:13;2.30;;;2.20;;
59659;SDS011;45534;52.690;6.268;2023-04-24T02:07:39;3.08;;;2.78;;
59659;SDS011;45534;52.690;6.268;2023-04-24T02:10:05;3.13;;;2.83;;
59659;SDS011;45534;52.690;6.268;2023-04-24T02:12:31;3.05;;;2.78;;
59659;SDS011;45534;52.690;6.268;2023-04-24T02:14:56;2.45;;;2.25;;
59659;SDS011;45534;52.690;6.268;2023-04-24T02:17:22;1.75;;;1.65;;
59659;SDS011;45534;52.690;6.268;2023-04-24T02:19:48;2.22;;;1.90;;
59659;SDS011;45534;52.690;6.268;2023-04-24T02:22:14;1.90;;;1.75;;
59659;SDS011;45534;52.690;6.268;2023-04-24T02:24:40;2.67;;;2.47;;
59659;SDS011;45534;52.690;6.268;2023-04-24T02:27:05;2.63;;;2.30;;
59659;SDS011;45534;52.690;6.268;2023-04-24T02:29:31;2.33;;;2.15;;
59659;SDS011;45534;52.690;6.268;2023-04-24T02:31:57;2.38;;;2.17;;
59659;SDS011;45534;52.690;6.268;2023-04-24T02:34:23;1.40;;;1.40;;
59659;SDS011;45534;52.690;6.268;2023-04-24T02:36:48;2.08;;;1.98;;
59659;SDS011;45534;52.690;6.268;2023-04-24T02:39:14;2.45;;;2.10;;
59659;SDS011;45534;52.690;6.268;2023-04-24T02:41:43;4.57;;;1.75;;
59659;SDS011;45534;52.690;6.268;2023-04-24T02:44:09;14.30;;;3.95;;
59659;SDS011;45534;52.690;6.268;2023-04-24T02:46:35;3.72;;;1.52;;
59659;SDS011;45534;52.690;6.268;2023-04-24T02:49:00;2.45;;;2.20;;
59659;SDS011;45534;52.690;6.268;2023-04-24T02:51:26;9.30;;;2.25;;
59659;SDS011;45534;52.690;6.268;2023-04-24T02:53:52;3.40;;;2.10;;
59659;SDS011;45534;52.690;6.268;2023-04-24T02:56:18;4.03;;;2.72;;
59659;SDS011;45534;52.690;6.268;2023-04-24T02:58:43;2.83;;;2.45;;
59659;SDS011;45534;52.690;6.268;2023-04-24T03:01:09;2.67;;;2.45;;
59659;SDS011;45534;52.690;6.268;2023-04-24T03:03:35;1.95;;;1.85;;
59659;SDS011;45534;52.690;6.268;2023-04-24T03:06:01;1.90;;;1.75;;
59659;SDS011;45534;52.690;6.268;2023-04-24T03:08:27;2.15;;;1.98;;
59659;SDS011;45534;52.690;6.268;2023-04-24T03:10:53;1.92;;;1.83;;
59659;SDS011;45534;52.690;6.268;2023-04-24T03:13:18;2.55;;;2.35;;
59659;SDS011;45534;52.690;6.268;2023-04-24T03:15:44;2.38;;;2.00;;
59659;SDS011;45534;52.690;6.268;2023-04-24T03:18:11;1.77;;;1.67;;
59659;SDS011;45534;52.690;6.268;2023-04-24T03:20:37;1.30;;;1.30;;
59659;SDS011;45534;52.690;6.268;2023-04-24T03:23:03;1.38;;;1.33;;
59659;SDS011;45534;52.690;6.268;2023-04-24T03:25:29;1.23;;;1.23;;
59659;SDS011;45534;52.690;6.268;2023-04-24T03:27:54;1.40;;;1.27;;
59659;SDS011;45534;52.690;6.268;2023-04-24T03:30:20;1.30;;;1.20;;
59659;SDS011;45534;52.690;6.268;2023-04-24T03:32:46;0.90;;;0.90;;
59659;SDS011;45534;52.690;6.268;2023-04-24T03:35:12;1.13;;;1.13;;
59659;SDS011;45534;52.690;6.268;2023-04-24T03:37:37;1.02;;;1.02;;
59659;SDS011;45534;52.690;6.268;2023-04-24T03:40:03;0.90;;;0.90;;
59659;SDS011;45534;52.690;6.268;2023-04-24T03:42:31;1.13;;;1.13;;
59659;SDS011;45534;52.690;6.268;2023-04-24T03:44:56;1.13;;;1.13;;
59659;SDS011;45534;52.690;6.268;2023-04-24T03:47:22;1.35;;;1.25;;
59659;SDS011;45534;52.690;6.268;2023-04-24T03:49:48;1.13;;;1.13;;
59659;SDS011;45534;52.690;6.268;2023-04-24T03:52:13;1.00;;;1.00;;
59659;SDS011;45534;52.690;6.268;2023-04-24T03:54:39;1.35;;;1.30;;
59659;SDS011;45534;52.690;6.268;2023-04-24T03:57:05;5.05;;;1.70;;
59659;SDS011;45534;52.690;6.268;2023-04-24T03:59:30;1.33;;;1.30;;
59659;SDS011;45534;52.690;6.268;2023-04-24T04:01:56;3.22;;;1.88;;
59659;SDS011;45534;52.690;6.268;2023-04-24T04:04:22;1.77;;;1.33;;
59659;SDS011;45534;52.690;6.268;2023-04-24T04:06:47;1.10;;;1.10;;
59659;SDS011;45534;52.690;6.268;2023-04-24T04:09:14;1.45;;;1.27;;
59659;SDS011;45534;52.690;6.268;2023-04-24T04:11:40;2.10;;;1.90;;
59659;SDS011;45534;52.690;6.268;2023-04-24T04:14:05;1.90;;;1.80;;
59659;SDS011;45534;52.690;6.268;2023-04-24T04:16:31;1.65;;;1.55;;
59659;SDS011;45534;52.690;6.268;2023-04-24T04:18:57;2.30;;;2.10;;
59659;SDS011;45534;52.690;6.268;2023-04-24T04:21:23;2.10;;;1.90;;
59659;SDS011;45534;52.690;6.268;2023-04-24T04:23:49;2.75;;;2.55;;
59659;SDS011;45534;52.690;6.268;2023-04-24T04:26:15;2.22;;;1.98;;
59659;SDS011;45534;52.690;6.268;2023-04-24T04:28:40;2.72;;;1.80;;
59659;SDS011;45534;52.690;6.268;2023-04-24T04:31:06;1.20;;;1.20;;
59659;SDS011;45534;52.690;6.268;2023-04-24T04:33:33;1.23;;;1.20;;
59659;SDS011;45534;52.690;6.268;2023-04-24T04:35:59;2.25;;;1.80;;
59659;SDS011;45534;52.690;6.268;2023-04-24T04:38:25;1.80;;;1.70;;
59659;SDS011;45534;52.690;6.268;2023-04-24T04:40:54;1.42;;;1.42;;
59659;SDS011;45534;52.690;6.268;2023-04-24T04:43:22;2.78;;;2.35;;
59659;SDS011;45534;52.690;6.268;2023-04-24T04:45:49;1.00;;;1.00;;
59659;SDS011;45534;52.690;6.268;2023-04-24T04:48:16;2.97;;;2.30;;
59659;SDS011;45534;52.690;6.268;2023-04-24T04:50:43;34.90;;;2.88;;
59659;SDS011;45534;52.690;6.268;2023-04-24T04:53:09;2.40;;;2.20;;
59659;SDS011;45534;52.690;6.268;2023-04-24T04:55:35;2.53;;;2.33;;
59659;SDS011;45534;52.690;6.268;2023-04-24T04:58:02;3.83;;;2.95;;
59659;SDS011;45534;52.690;6.268;2023-04-24T05:00:30;3.35;;;2.58;;
59659;SDS011;45534;52.690;6.268;2023-04-24T05:03:00;3.15;;;2.85;;
59659;SDS011;45534;52.690;6.268;2023-04-24T05:05:26;2.97;;;2.45;;
59659;SDS011;45534;52.690;6.268;2023-04-24T05:07:55;3.78;;;3.22;;
59659;SDS011;45534;52.690;6.268;2023-04-24T05:10:20;4.22;;;3.33;;
59659;SDS011;45534;52.690;6.268;2023-04-24T05:12:46;3.10;;;2.80;;
59659;SDS011;45534;52.690;6.268;2023-04-24T05:15:12;4.68;;;2.97;;
59659;SDS011;45534;52.690;6.268;2023-04-24T05:17:37;2.95;;;2.20;;
59659;SDS011;45534;52.690;6.268;2023-04-24T05:20:05;4.68;;;3.05;;
59659;SDS011;45534;52.690;6.268;2023-04-24T05:22:31;5.68;;;3.30;;
59659;SDS011;45534;52.690;6.268;2023-04-24T05:24:57;3.55;;;2.53;;
59659;SDS011;45534;52.690;6.268;2023-04-24T05:27:23;6.28;;;3.92;;
59659;SDS011;45534;52.690;6.268;2023-04-24T05:29:49;5.38;;;3.80;;
59659;SDS011;45534;52.690;6.268;2023-04-24T05:32:15;8.45;;;4.40;;
59659;SDS011;45534;52.690;6.268;2023-04-24T05:34:40;4.07;;;2.65;;
59659;SDS011;45534;52.690;6.268;2023-04-24T05:37:06;5.53;;;3.30;;
59659;SDS011;45534;52.690;6.268;2023-04-24T05:39:34;5.95;;;3.38;;
59659;SDS011;45534;52.690;6.268;2023-04-24T05:42:01;3.63;;;2.63;;
59659;SDS011;45534;52.690;6.268;2023-04-24T05:44:29;6.32;;;3.80;;
59659;SDS011;45534;52.690;6.268;2023-04-24T05:46:55;4.65;;;3.15;;
59659;SDS011;45534;52.690;6.268;2023-04-24T05:49:21;7.32;;;4.22;;
59659;SDS011;45534;52.690;6.268;2023-04-24T05:51:47;6.32;;;4.05;;
59659;SDS011;45534;52.690;6.268;2023-04-24T05:54:13;5.05;;;3.90;;
59659;SDS011;45534;52.690;6.268;2023-04-24T05:56:39;6.70;;;2.80;;
59659;SDS011;45534;52.690;6.268;2023-04-24T05:59:05;4.80;;;3.03;;
59659;SDS011;45534;52.690;6.268;2023-04-24T06:01:31;4.90;;;3.42;;
59659;SDS011;45534;52.690;6.268;2023-04-24T06:03:57;6.07;;;4.00;;
59659;SDS011;45534;52.690;6.268;2023-04-24T06:06:23;1.98;;;1.88;;
59659;SDS011;45534;52.690;6.268;2023-04-24T06:08:49;5.25;;;3.10;;
59659;SDS011;45534;52.690;6.268;2023-04-24T06:11:15;5.32;;;2.90;;
59659;SDS011;45534;52.690;6.268;2023-04-24T06:13:41;3.03;;;2.33;;
59659;SDS011;45534;52.690;6.268;2023-04-24T06:16:06;10.35;;;3.00;;
59659;SDS011;45534;52.690;6.268;2023-04-24T06:18:32;5.20;;;3.28;;
59659;SDS011;45534;52.690;6.268;2023-04-24T06:20:58;3.38;;;2.40;;
59659;SDS011;45534;52.690;6.268;2023-04-24T06:23:24;4.07;;;2.47;;
59659;SDS011;45534;52.690;6.268;2023-04-24T06:25:50;2.05;;;1.92;;
59659;SDS011;45534;52.690;6.268;2023-04-24T06:28:16;2.63;;;2.42;;
59659;SDS011;45534;52.690;6.268;2023-04-24T06:30:42;2.97;;;2.53;;
59659;SDS011;45534;52.690;6.268;2023-04-24T06:33:08;3.30;;;2.25;;
59659;SDS011;45534;52.690;6.268;2023-04-24T06:35:34;3.25;;;2.22;;
59659;SDS011;45534;52.690;6.268;2023-04-24T06:38:00;1.63;;;1.40;;
59659;SDS011;45534;52.690;6.268;2023-04-24T06:40:26;2.65;;;2.42;;
59659;SDS011;45534;52.690;6.268;2023-04-24T06:42:51;4.32;;;3.15;;
59659;SDS011;45534;52.690;6.268;2023-04-24T06:45:17;4.93;;;3.47;;
59659;SDS011;45534;52.690;6.268;2023-04-24T06:47:43;3.50;;;2.55;;
59659;SDS011;45534;52.690;6.268;2023-04-24T06:50:09;5.25;;;3.58;;
59659;SDS011;45534;52.690;6.268;2023-04-24T06:52:36;3.28;;;2.70;;
59659;SDS011;45534;52.690;6.268;2023-04-24T06:55:02;4.43;;;3.63;;
59659;SDS011;45534;52.690;6.268;2023-04-24T06:57:29;6.70;;;3.42;;
59659;SDS011;45534;52.690;6.268;2023-04-24T06:59:55;7.35;;;3.75;;
59659;SDS011;45534;52.690;6.268;2023-04-24T07:02:20;4.00;;;2.85;;
59659;SDS011;45534;52.690;6.268;2023-04-24T07:04:46;8.02;;;4.38;;
59659;SDS011;45534;52.690;6.268;2023-04-24T07:07:12;6.82;;;6.10;;
59659;SDS011;45534;52.690;6.268;2023-04-24T07:09:39;4.30;;;3.85;;
59659;SDS011;45534;52.690;6.268;2023-04-24T07:12:10;5.47;;;2.35;;
59659;SDS011;45534;52.690;6.268;2023-04-24T07:14:36;3.60;;;2.90;;
59659;SDS011;45534;52.690;6.268;2023-04-24T07:17:05;5.03;;;4.13;;
59659;SDS011;45534;52.690;6.268;2023-04-24T07:19:32;6.80;;;5.00;;
59659;SDS011;45534;52.690;6.268;2023-04-24T07:22:00;4.90;;;2.92;;
59659;SDS011;45534;52.690;6.268;2023-04-24T07:24:26;5.80;;;3.97;;
59659;SDS011;45534;52.690;6.268;2023-04-24T07:26:51;3.13;;;2.80;;
59659;SDS011;45534;52.690;6.268;2023-04-24T07:29:17;3.40;;;2.72;;
59659;SDS011;45534;52.690;6.268;2023-04-24T07:31:44;5.18;;;3.75;;
59659;SDS011;45534;52.690;6.268;2023-04-24T07:34:09;3.30;;;3.00;;
59659;SDS011;45534;52.690;6.268;2023-04-24T07:36:35;4.00;;;3.60;;
59659;SDS011;45534;52.690;6.268;2023-04-24T07:39:03;4.95;;;3.22;;
59659;SDS011;45534;52.690;6.268;2023-04-24T07:41:32;3.95;;;3.55;;
59659;SDS011;45534;52.690;6.268;2023-04-24T07:43:58;4.28;;;2.78;;
59659;SDS011;45534;52.690;6.268;2023-04-24T07:46:24;4.57;;;3.70;;
59659;SDS011;45534;52.690;6.268;2023-04-24T07:48:50;6.40;;;3.00;;
59659;SDS011;45534;52.690;6.268;2023-04-24T07:51:15;2.20;;;2.00;;
59659;SDS011;45534;52.690;6.268;2023-04-24T07:53:42;2.55;;;2.08;;
59659;SDS011;45534;52.690;6.268;2023-04-24T07:56:08;3.75;;;2.47;;
59659;SDS011;45534;52.690;6.268;2023-04-24T07:58:34;5.68;;;3.45;;
59659;SDS011;45534;52.690;6.268;2023-04-24T08:01:00;5.88;;;4.85;;
59659;SDS011;45534;52.690;6.268;2023-04-24T08:03:26;6.85;;;5.20;;
59659;SDS011;45534;52.690;6.268;2023-04-24T08:05:51;8.52;;;6.53;;
59659;SDS011;45534;52.690;6.268;2023-04-24T08:08:18;12.75;;;8.30;;
59659;SDS011;45534;52.690;6.268;2023-04-24T08:10:48;15.20;;;10.73;;
59659;SDS011;45534;52.690;6.268;2023-04-24T08:13:14;14.23;;;8.32;;
59659;SDS011;45534;52.690;6.268;2023-04-24T08:15:40;21.10;;;13.07;;
59659;SDS011;45534;52.690;6.268;2023-04-24T08:18:05;18.55;;;11.20;;
59659;SDS011;45534;52.690;6.268;2023-04-24T08:20:32;15.98;;;12.05;;
59659;SDS011;45534;52.690;6.268;2023-04-24T08:22:58;25.17;;;12.20;;
59659;SDS011;45534;52.690;6.268;2023-04-24T08:25:24;22.23;;;10.68;;
59659;SDS011;45534;52.690;6.268;2023-04-24T08:27:50;21.20;;;14.60;;
59659;SDS011;45534;52.690;6.268;2023-04-24T08:30:16;16.25;;;8.60;;
59659;SDS011;45534;52.690;6.268;2023-04-24T08:32:42;16.50;;;13.98;;
59659;SDS011;45534;52.690;6.268;2023-04-24T08:35:08;21.98;;;13.07;;
59659;SDS011;45534;52.690;6.268;2023-04-24T08:37:35;14.10;;;9.82;;
59659;SDS011;45534;52.690;6.268;2023-04-24T08:40:02;25.58;;;15.93;;
59659;SDS011;45534;52.690;6.268;2023-04-24T08:42:35;19.60;;;13.68;;
59659;SDS011;45534;52.690;6.268;2023-04-24T08:45:02;13.85;;;8.15;;
59659;SDS011;45534;52.690;6.268;2023-04-24T08:47:28;17.20;;;13.93;;
59659;SDS011;45534;52.690;6.268;2023-04-24T08:49:55;19.95;;;10.32;;
59659;SDS011;45534;52.690;6.268;2023-04-24T08:52:21;14.10;;;9.38;;
59659;SDS011;45534;52.690;6.268;2023-04-24T08:54:47;10.23;;;8.38;;
59659;SDS011;45534;52.690;6.268;2023-04-24T08:57:14;7.20;;;6.43;;
59659;SDS011;45534;52.690;6.268;2023-04-24T08:59:40;7.97;;;5.75;;
59659;SDS011;45534;52.690;6.268;2023-04-24T09:02:06;12.35;;;7.68;;
59659;SDS011;45534;52.690;6.268;2023-04-24T09:04:36;21.55;;;9.38;;
59659;SDS011;45534;52.690;6.268;2023-04-24T09:07:02;12.80;;;10.70;;
59659;SDS011;45534;52.690;6.268;2023-04-24T09:09:31;8.55;;;5.93;;
59659;SDS011;45534;52.690;6.268;2023-04-24T09:11:58;6.68;;;4.63;;
59659;SDS011;45534;52.690;6.268;2023-04-24T09:14:25;6.45;;;4.38;;
59659;SDS011;45534;52.690;6.268;2023-04-24T09:16:53;9.50;;;6.30;;
59659;SDS011;45534;52.690;6.268;2023-04-24T09:19:18;13.60;;;7.25;;
59659;SDS011;45534;52.690;6.268;2023-04-24T09:21:46;11.68;;;6.53;;
59659;SDS011;45534;52.690;6.268;2023-04-24T09:24:16;10.45;;;7.35;;
59659;SDS011;45534;52.690;6.268;2023-04-24T09:26:47;15.60;;;6.55;;
59659;SDS011;45534;52.690;6.268;2023-04-24T09:29:18;18.27;;;7.28;;
59659;SDS011;45534;52.690;6.268;2023-04-24T09:31:44;7.85;;;5.85;;
59659;SDS011;45534;52.690;6.268;2023-04-24T09:34:11;18.15;;;9.07;;
59659;SDS011;45534;52.690;6.268;2023-04-24T09:36:41;12.55;;;6.90;;
59659;SDS011;45534;52.690;6.268;2023-04-24T09:39:08;21.90;;;8.80;;
59659;SDS011;45534;52.690;6.268;2023-04-24T09:41:43;6.60;;;5.05;;
59659;SDS011;45534;52.690;6.268;2023-04-24T09:44:23;6.80;;;5.07;;
59659;SDS011;45534;52.690;6.268;2023-04-24T09:49:23;10.65;;;5.15;;
59659;SDS011;45534;52.690;6.268;2023-04-24T09:51:51;11.32;;;5.90;;
59659;SDS011;45534;52.690;6.268;2023-04-24T09:54:30;8.88;;;6.05;;
59659;SDS011;45534;52.690;6.268;2023-04-24T09:56:56;5.80;;;3.65;;
59659;SDS011;45534;52.690;6.268;2023-04-24T09:59:22;11.85;;;6.68;;
59659;SDS011;45534;52.690;6.268;2023-04-24T10:01:48;9.07;;;5.88;;
59659;SDS011;45534;52.690;6.268;2023-04-24T10:04:16;5.07;;;2.53;;
59659;SDS011;45534;52.690;6.268;2023-04-24T10:06:46;7.18;;;3.45;;
59659;SDS011;45534;52.690;6.268;2023-04-24T10:09:14;11.70;;;3.97;;
59659;SDS011;45534;52.690;6.268;2023-04-24T10:11:44;6.43;;;4.13;;
59659;SDS011;45534;52.690;6.268;2023-04-24T10:14:14;2.10;;;1.98;;
59659;SDS011;45534;52.690;6.268;2023-04-24T10:16:41;4.65;;;3.50;;
59659;SDS011;45534;52.690;6.268;2023-04-24T10:19:08;6.25;;;5.15;;
59659;SDS011;45534;52.690;6.268;2023-04-24T10:21:34;6.18;;;3.20;;
59659;SDS011;45534;52.690;6.268;2023-04-24T10:24:04;7.97;;;2.75;;
59659;SDS011;45534;52.690;6.268;2023-04-24T10:26:32;7.15;;;3.35;;
59659;SDS011;45534;52.690;6.268;2023-04-24T10:28:59;12.35;;;4.53;;
59659;SDS011;45534;52.690;6.268;2023-04-24T10:31:25;9.85;;;5.30;;
59659;SDS011;45534;52.690;6.268;2023-04-24T10:33:52;10.55;;;3.47;;
59659;SDS011;45534;52.690;6.268;2023-04-24T10:36:20;2.92;;;2.72;;
59659;SDS011;45534;52.690;6.268;2023-04-24T10:38:48;4.13;;;2.80;;
59659;SDS011;45534;52.690;6.268;2023-04-24T10:41:15;8.55;;;4.80;;
59659;SDS011;45534;52.690;6.268;2023-04-24T10:43:48;7.10;;;4.70;;
59659;SDS011;45534;52.690;6.268;2023-04-24T10:46:29;11.65;;;4.32;;
59659;SDS011;45534;52.690;6.268;2023-04-24T10:48:56;5.93;;;3.88;;
59659;SDS011;45534;52.690;6.268;2023-04-24T10:51:23;18.00;;;4.88;;
59659;SDS011;45534;52.690;6.268;2023-04-24T10:56:53;6.32;;;3.20;;
59659;SDS011;45534;52.690;6.268;2023-04-24T10:59:38;8.38;;;3.45;;
59659;SDS011;45534;52.690;6.268;2023-04-24T11:02:04;6.75;;;3.30;;
59659;SDS011;45534;52.690;6.268;2023-04-24T11:04:33;6.28;;;2.85;;
59659;SDS011;45534;52.690;6.268;2023-04-24T11:07:00;22.98;;;4.35;;
59659;SDS011;45534;52.690;6.268;2023-04-24T11:09:27;8.45;;;2.65;;
59659;SDS011;45534;52.690;6.268;2023-04-24T11:17:36;2.47;;;2.28;;
59659;SDS011;45534;52.690;6.268;2023-04-24T11:20:03;12.73;;;3.05;;
59659;SDS011;45534;52.690;6.268;2023-04-24T11:22:38;2.35;;;2.00;;
59659;SDS011;45534;52.690;6.268;2023-04-24T11:25:05;5.00;;;3.53;;
59659;SDS011;45534;52.690;6.268;2023-04-24T11:27:38;3.90;;;1.88;;
59659;SDS011;45534;52.690;6.268;2023-04-24T11:30:06;6.68;;;4.07;;
59659;SDS011;45534;52.690;6.268;2023-04-24T11:37:33;7.95;;;3.28;;
59659;SDS011;45534;52.690;6.268;2023-04-24T11:40:03;3.65;;;1.70;;
59659;SDS011;45534;52.690;6.268;2023-04-24T11:42:50;3.65;;;2.65;;
59659;SDS011;45534;52.690;6.268;2023-04-24T11:45:30;4.80;;;3.00;;
59659;SDS011;45534;52.690;6.268;2023-04-24T11:47:56;4.97;;;2.83;;
59659;SDS011;45534;52.690;6.268;2023-04-24T11:50:23;8.57;;;3.22;;
59659;SDS011;45534;52.690;6.268;2023-04-24T11:52:53;1.93;;;1.83;;
59659;SDS011;45534;52.690;6.268;2023-04-24T11:57:46;9.10;;;2.67;;
59659;SDS011;45534;52.690;6.268;2023-04-24T12:00:21;2.95;;;2.28;;
59659;SDS011;45534;52.690;6.268;2023-04-24T12:02:48;3.28;;;1.98;;
59659;SDS011;45534;52.690;6.268;2023-04-24T12:07:48;1.58;;;1.48;;
59659;SDS011;45534;52.690;6.268;2023-04-24T12:10:13;8.13;;;5.25;;
59659;SDS011;45534;52.690;6.268;2023-04-24T12:12:39;1.88;;;1.73;;
59659;SDS011;45534;52.690;6.268;2023-04-24T12:15:08;4.75;;;2.20;;
59659;SDS011;45534;52.690;6.268;2023-04-24T12:17:35;5.65;;;1.77;;
59659;SDS011;45534;52.690;6.268;2023-04-24T12:20:05;3.78;;;2.47;;
59659;SDS011;45534;52.690;6.268;2023-04-24T12:25:24;3.20;;;2.38;;
59659;SDS011;45534;52.690;6.268;2023-04-24T12:27:55;3.33;;;2.42;;
59659;SDS011;45534;52.690;6.268;2023-04-24T12:30:31;3.83;;;2.05;;
59659;SDS011;45534;52.690;6.268;2023-04-24T12:32:59;1.33;;;1.33;;
59659;SDS011;45534;52.690;6.268;2023-04-24T12:35:29;1.50;;;1.40;;
59659;SDS011;45534;52.690;6.268;2023-04-24T12:38:10;1.35;;;1.33;;
59659;SDS011;45534;52.690;6.268;2023-04-24T12:40:38;1.58;;;1.38;;
59659;SDS011;45534;52.690;6.268;2023-04-24T12:43:17;5.18;;;1.45;;
59659;SDS011;45534;52.690;6.268;2023-04-24T12:45:45;4.40;;;1.50;;
59659;SDS011;45534;52.690;6.268;2023-04-24T12:48:13;2.30;;;1.92;;
59659;SDS011;45534;52.690;6.268;2023-04-24T12:50:39;1.50;;;1.45;;
59659;SDS011;45534;52.690;6.268;2023-04-24T12:53:05;3.90;;;2.15;;
59659;SDS011;45534;52.690;6.268;2023-04-24T12:55:33;7.05;;;3.28;;
59659;SDS011;45534;52.690;6.268;2023-04-24T12:57:59;3.58;;;2.05;;
59659;SDS011;45534;52.690;6.268;2023-04-24T13:00:25;2.28;;;1.50;;
59659;SDS011;45534;52.690;6.268;2023-04-24T13:02:50;2.25;;;1.70;;
59659;SDS011;45534;52.690;6.268;2023-04-24T13:05:16;7.75;;;4.03;;
59659;SDS011;45534;52.690;6.268;2023-04-24T13:07:42;4.10;;;2.17;;
59659;SDS011;45534;52.690;6.268;2023-04-24T13:10:08;1.80;;;1.70;;
59659;SDS011;45534;52.690;6.268;2023-04-24T13:12:34;8.23;;;2.25;;
59659;SDS011;45534;52.690;6.268;2023-04-24T13:15:00;7.32;;;2.78;;
59659;SDS011;45534;52.690;6.268;2023-04-24T13:17:25;1.63;;;1.52;;
59659;SDS011;45534;52.690;6.268;2023-04-24T13:19:53;2.28;;;1.30;;
59659;SDS011;45534;52.690;6.268;2023-04-24T13:22:20;7.20;;;2.90;;
59659;SDS011;45534;52.690;6.268;2023-04-24T13:24:45;1.55;;;1.55;;
59659;SDS011;45534;52.690;6.268;2023-04-24T13:27:14;6.15;;;2.05;;
59659;SDS011;45534;52.690;6.268;2023-04-24T13:29:40;1.58;;;1.48;;
59659;SDS011;45534;52.690;6.268;2023-04-24T13:32:06;11.80;;;3.63;;
59659;SDS011;45534;52.690;6.268;2023-04-24T13:34:32;1.52;;;1.42;;
59659;SDS011;45534;52.690;6.268;2023-04-24T13:36:59;1.58;;;1.45;;
59659;SDS011;45534;52.690;6.268;2023-04-24T13:39:25;2.30;;;1.42;;
59659;SDS011;45534;52.690;6.268;2023-04-24T13:41:51;3.70;;;1.65;;
59659;SDS011;45534;52.690;6.268;2023-04-24T13:44:18;1.75;;;1.65;;
59659;SDS011;45534;52.690;6.268;2023-04-24T13:46:45;1.98;;;1.50;;
59659;SDS011;45534;52.690;6.268;2023-04-24T13:49:12;5.78;;;1.92;;
59659;SDS011;45534;52.690;6.268;2023-04-24T13:51:38;8.57;;;3.13;;
59659;SDS011;45534;52.690;6.268;2023-04-24T13:54:05;2.95;;;2.75;;
59659;SDS011;45534;52.690;6.268;2023-04-24T13:56:31;2.42;;;2.22;;
59659;SDS011;45534;52.690;6.268;2023-04-24T13:58:56;8.23;;;2.08;;
59659;SDS011;45534;52.690;6.268;2023-04-24T14:01:22;2.42;;;2.22;;
59659;SDS011;45534;52.690;6.268;2023-04-24T14:03:53;10.30;;;3.25;;
59659;SDS011;45534;52.690;6.268;2023-04-24T14:06:20;3.75;;;2.40;;
59659;SDS011;45534;52.690;6.268;2023-04-24T14:08:48;4.65;;;2.78;;
59659;SDS011;45534;52.690;6.268;2023-04-24T14:11:15;4.50;;;1.30;;
59659;SDS011;45534;52.690;6.268;2023-04-24T14:13:42;7.88;;;2.40;;
59659;SDS011;45534;52.690;6.268;2023-04-24T14:16:08;5.85;;;1.92;;
59659;SDS011;45534;52.690;6.268;2023-04-24T14:18:35;2.08;;;1.88;;
59659;SDS011;45534;52.690;6.268;2023-04-24T14:21:01;2.80;;;2.45;;
59659;SDS011;45534;52.690;6.268;2023-04-24T14:23:30;14.55;;;3.97;;
59659;SDS011;45534;52.690;6.268;2023-04-24T14:25:56;2.10;;;1.80;;
59659;SDS011;45534;52.690;6.268;2023-04-24T14:28:23;5.80;;;3.03;;
59659;SDS011;45534;52.690;6.268;2023-04-24T14:30:49;4.55;;;2.10;;
59659;SDS011;45534;52.690;6.268;2023-04-24T14:33:15;4.05;;;2.60;;
59659;SDS011;45534;52.690;6.268;2023-04-24T14:35:41;5.85;;;4.65;;
59659;SDS011;45534;52.690;6.268;2023-04-24T14:38:07;4.45;;;2.25;;
59659;SDS011;45534;52.690;6.268;2023-04-24T14:40:33;3.45;;;2.58;;
59659;SDS011;45534;52.690;6.268;2023-04-24T14:42:59;4.20;;;2.58;;
59659;SDS011;45534;52.690;6.268;2023-04-24T14:45:25;10.73;;;2.42;;
59659;SDS011;45534;52.690;6.268;2023-04-24T14:47:51;2.20;;;1.92;;
59659;SDS011;45534;52.690;6.268;2023-04-24T14:50:18;3.17;;;2.42;;
59659;SDS011;45534;52.690;6.268;2023-04-24T14:52:44;3.75;;;1.83;;
59659;SDS011;45534;52.690;6.268;2023-04-24T14:55:09;8.02;;;3.22;;
59659;SDS011;45534;52.690;6.268;2023-04-24T14:57:35;9.13;;;5.13;;
59659;SDS011;45534;52.690;6.268;2023-04-24T15:00:02;7.53;;;3.65;;
59659;SDS011;45534;52.690;6.268;2023-04-24T15:02:33;5.38;;;2.10;;
59659;SDS011;45534;52.690;6.268;2023-04-24T15:04:59;12.48;;;4.97;;
59659;SDS011;45534;52.690;6.268;2023-04-24T15:07:25;2.63;;;2.42;;